Startpagina
METAR-TAF:

METAR-TAF

Vliegvelden :

Tongatapu, Tonga

breedte: 21-14S, lengte: 175-09W, hoogte: 38 m

Actueel weer

Dit bericht is 12 minuten geleden gemaakt, om 07:00 UTC
Wind 8 kt uit het zuidzuidoosten
Temperatuur 26°C
Vochtigheid 84%
Druk 1013 hPa
Zicht 10 km of meer
Weinig wolken op 1600 ft, Stapelwolken.

METAR: NFTF 270700Z 16008KT 9999 FEW016TCU 26/23 Q1013

Tijdstip: 20:12 (07:12 UTC)

Verwachting

Dit bericht is 1 uur en het 45 minuten geleden gemaakt, om 05:27 UTC
Verwachting geldig van 27 om 06 UTC tot 28 om 06 UTC
Wind 8 kt uit het zuidoosten
Zicht 10 km of meer
Weinig wolken op 800 ft
Verspreide wolken op 1600 ft
Kans 30% :
Tijdelijke
van 27 om 06 UTC tot 27 om 24 UTC
Zicht: 5000 m
Gebroken wolken op 700 ft
Gebroken wolken op 1500 ft
regenbuien

TAF: NFTF 270527Z 2706/2806 13008KT 9999 FEW008 SCT016 PROB30 TEMPO 2706/2724 5000 SHRA BKN007 BKN015

Waarnemingen en weersverwachtingen van meer dan 4000 vliegvelden (METAR en TAF).

De beschikbare stations zijn de gele en rode punten op de kaart.

Ga met uw muis naar het station om de naam te zien.

Klik dan om waarnemingen en weersverwachtingen te zien.

kaart wijzigen: klik op de groene knoppen met een zwart kruis om in te zoomen, op de groene knop met een streepje om uit te zoomen of op de groene pijlen voor aangrenzende kaarten.


METAR-TAF: